sensor_id;sensor_type;location;lat;lon;timestamp;pressure;altitude;pressure_sealevel;temperature;humidity
61769;BME280;47669;48.712;9.016;2024-01-15T00:00:38;95572.91;;;-3.02;79.94
61769;BME280;47669;48.712;9.016;2024-01-15T00:03:03;95573.34;;;-3.07;80.29
61769;BME280;47669;48.712;9.016;2024-01-15T00:05:28;95575.50;;;-3.20;80.38
61769;BME280;47669;48.712;9.016;2024-01-15T00:07:54;95566.34;;;-3.15;79.97
61769;BME280;47669;48.712;9.016;2024-01-15T00:10:19;95566.63;;;-3.18;80.23
61769;BME280;47669;48.712;9.016;2024-01-15T00:12:44;95564.44;;;-3.13;80.67
61769;BME280;47669;48.712;9.016;2024-01-15T00:15:09;95561.19;;;-3.15;80.70
61769;BME280;47669;48.712;9.016;2024-01-15T00:17:35;95563.00;;;-3.07;81.02
61769;BME280;47669;48.712;9.016;2024-01-15T00:20:00;95563.00;;;-3.07;81.65
61769;BME280;47669;48.712;9.016;2024-01-15T00:22:25;95561.69;;;-3.11;81.59
61769;BME280;47669;48.712;9.016;2024-01-15T00:24:52;95558.94;;;-2.92;81.63
61769;BME280;47669;48.712;9.016;2024-01-15T00:27:17;95565.09;;;-3.11;81.59
61769;BME280;47669;48.712;9.016;2024-01-15T00:29:42;95560.13;;;-3.04;82.42
61769;BME280;47669;48.712;9.016;2024-01-15T00:32:08;95556.31;;;-3.18;82.38
61769;BME280;47669;48.712;9.016;2024-01-15T00:34:33;95548.13;;;-3.13;81.48
61769;BME280;47669;48.712;9.016;2024-01-15T00:36:58;95557.63;;;-3.14;82.11
61769;BME280;47669;48.712;9.016;2024-01-15T00:39:23;95555.03;;;-3.14;82.55
61769;BME280;47669;48.712;9.016;2024-01-15T00:41:49;95541.78;;;-3.19;82.65
61769;BME280;47669;48.712;9.016;2024-01-15T00:44:14;95541.25;;;-3.22;82.89
61769;BME280;47669;48.712;9.016;2024-01-15T00:46:44;95546.41;;;-3.22;82.88
61769;BME280;47669;48.712;9.016;2024-01-15T00:49:10;95548.19;;;-3.23;83.04
61769;BME280;47669;48.712;9.016;2024-01-15T00:51:35;95545.75;;;-3.24;83.02
61769;BME280;47669;48.712;9.016;2024-01-15T00:54:00;95548.25;;;-3.15;82.85
61769;BME280;47669;48.712;9.016;2024-01-15T00:56:25;95548.72;;;-3.19;82.96
61769;BME280;47669;48.712;9.016;2024-01-15T00:58:51;95550.31;;;-3.18;82.93
61769;BME280;47669;48.712;9.016;2024-01-15T01:01:16;95549.53;;;-3.19;83.77
61769;BME280;47669;48.712;9.016;2024-01-15T01:03:41;95549.13;;;-3.06;82.83
61769;BME280;47669;48.712;9.016;2024-01-15T01:06:06;95541.66;;;-3.09;83.75
61769;BME280;47669;48.712;9.016;2024-01-15T01:08:32;95554.91;;;-3.12;83.27
61769;BME280;47669;48.712;9.016;2024-01-15T01:10:57;95550.06;;;-3.07;83.19
61769;BME280;47669;48.712;9.016;2024-01-15T01:13:22;95548.81;;;-3.03;83.12
61769;BME280;47669;48.712;9.016;2024-01-15T01:15:47;95545.16;;;-3.18;83.39
61769;BME280;47669;48.712;9.016;2024-01-15T01:18:13;95548.47;;;-3.08;83.32
61769;BME280;47669;48.712;9.016;2024-01-15T01:20:38;95535.75;;;-3.01;83.38
61769;BME280;47669;48.712;9.016;2024-01-15T01:23:03;95533.31;;;-3.03;83.34
61769;BME280;47669;48.712;9.016;2024-01-15T01:25:28;95533.97;;;-3.01;83.91
61769;BME280;47669;48.712;9.016;2024-01-15T01:27:54;95539.97;;;-3.00;83.37
61769;BME280;47669;48.712;9.016;2024-01-15T01:30:19;95535.91;;;-3.03;83.47
61769;BME280;47669;48.712;9.016;2024-01-15T01:32:44;95536.31;;;-2.90;83.96
61769;BME280;47669;48.712;9.016;2024-01-15T01:35:09;95533.97;;;-3.01;83.68
61769;BME280;47669;48.712;9.016;2024-01-15T01:37:35;95542.59;;;-2.92;84.06
61769;BME280;47669;48.712;9.016;2024-01-15T01:40:00;95542.59;;;-2.92;83.52
61769;BME280;47669;48.712;9.016;2024-01-15T01:42:25;95544.88;;;-2.89;83.75
61769;BME280;47669;48.712;9.016;2024-01-15T01:44:51;95543.56;;;-2.93;83.54
61769;BME280;47669;48.712;9.016;2024-01-15T01:47:16;95537.88;;;-2.97;83.82
61769;BME280;47669;48.712;9.016;2024-01-15T01:49:42;95534.03;;;-2.93;84.23
61769;BME280;47669;48.712;9.016;2024-01-15T01:52:08;95536.31;;;-2.90;83.71
61769;BME280;47669;48.712;9.016;2024-01-15T01:54:35;95541.94;;;-2.94;83.75
61769;BME280;47669;48.712;9.016;2024-01-15T01:57:02;95533.53;;;-2.96;83.86
61769;BME280;47669;48.712;9.016;2024-01-15T01:59:28;95539.19;;;-2.93;83.12
61769;BME280;47669;48.712;9.016;2024-01-15T02:01:54;95529.84;;;-2.94;83.30
61769;BME280;47669;48.712;9.016;2024-01-15T02:04:19;95523.41;;;-2.90;83.70
61769;BME280;47669;48.712;9.016;2024-01-15T02:06:45;95529.19;;;-2.96;83.47
61769;BME280;47669;48.712;9.016;2024-01-15T02:09:11;95529.91;;;-3.03;83.46
61769;BME280;47669;48.712;9.016;2024-01-15T02:11:40;95531.69;;;-3.04;83.92
61769;BME280;47669;48.712;9.016;2024-01-15T02:14:05;95533.78;;;-2.81;83.51
61769;BME280;47669;48.712;9.016;2024-01-15T02:16:31;95528.84;;;-2.93;84.11
61769;BME280;47669;48.712;9.016;2024-01-15T02:18:56;95531.97;;;-2.89;84.31
61769;BME280;47669;48.712;9.016;2024-01-15T02:21:21;95536.13;;;-2.96;84.35
61769;BME280;47669;48.712;9.016;2024-01-15T02:23:47;95519.63;;;-2.95;84.26
61769;BME280;47669;48.712;9.016;2024-01-15T02:26:12;95511.06;;;-2.96;83.75
61769;BME280;47669;48.712;9.016;2024-01-15T02:28:37;95515.53;;;-3.06;84.90
61769;BME280;47669;48.712;9.016;2024-01-15T02:31:03;95508.78;;;-2.99;84.57
61769;BME280;47669;48.712;9.016;2024-01-15T02:33:28;95520.25;;;-3.01;84.57
61769;BME280;47669;48.712;9.016;2024-01-15T02:35:53;95511.53;;;-3.00;84.47
61769;BME280;47669;48.712;9.016;2024-01-15T02:38:19;95521.47;;;-2.88;83.65
61769;BME280;47669;48.712;9.016;2024-01-15T02:40:44;95516.91;;;-2.94;83.89
61769;BME280;47669;48.712;9.016;2024-01-15T02:43:10;95518.22;;;-2.90;83.81
61769;BME280;47669;48.712;9.016;2024-01-15T02:45:36;95516.91;;;-2.94;84.45
61769;BME280;47669;48.712;9.016;2024-01-15T02:48:01;95518.66;;;-2.94;83.97
61769;BME280;47669;48.712;9.016;2024-01-15T02:50:26;95518.31;;;-2.99;84.39
61769;BME280;47669;48.712;9.016;2024-01-15T02:52:52;95511.06;;;-2.96;84.53
61769;BME280;47669;48.712;9.016;2024-01-15T02:55:17;95514.63;;;-2.97;84.29
61769;BME280;47669;48.712;9.016;2024-01-15T02:57:43;95512.88;;;-2.88;84.72
61769;BME280;47669;48.712;9.016;2024-01-15T03:00:08;95516.72;;;-2.92;84.19
61769;BME280;47669;48.712;9.016;2024-01-15T03:02:38;95510.41;;;-2.98;84.32
61769;BME280;47669;48.712;9.016;2024-01-15T03:05:09;95512.53;;;-2.93;83.73
61769;BME280;47669;48.712;9.016;2024-01-15T03:07:34;95509.28;;;-2.95;83.84
61769;BME280;47669;48.712;9.016;2024-01-15T03:09:59;95513.50;;;-2.94;84.18
61769;BME280;47669;48.712;9.016;2024-01-15T03:12:25;95508.69;;;-2.89;83.90
61769;BME280;47669;48.712;9.016;2024-01-15T03:14:50;95513.59;;;-2.78;83.91
61769;BME280;47669;48.712;9.016;2024-01-15T03:17:15;95512.66;;;-2.77;83.81
61769;BME280;47669;48.712;9.016;2024-01-15T03:19:41;95505.97;;;-2.88;84.36
61769;BME280;47669;48.712;9.016;2024-01-15T03:22:06;95505.44;;;-2.91;83.96
61769;BME280;47669;48.712;9.016;2024-01-15T03:24:34;95504.88;;;-2.77;83.69
61769;BME280;47669;48.712;9.016;2024-01-15T03:26:59;95509.75;;;-2.74;83.92
61769;BME280;47669;48.712;9.016;2024-01-15T03:29:25;95511.47;;;-2.82;84.10
61769;BME280;47669;48.712;9.016;2024-01-15T03:31:51;95503.09;;;-2.76;83.95
61769;BME280;47669;48.712;9.016;2024-01-15T03:34:16;95493.81;;;-2.61;84.41
61769;BME280;47669;48.712;9.016;2024-01-15T03:36:42;95495.38;;;-2.68;84.18
61769;BME280;47669;48.712;9.016;2024-01-15T03:39:07;95497.00;;;-2.67;83.44
61769;BME280;47669;48.712;9.016;2024-01-15T03:41:32;95495.91;;;-2.56;83.68
61769;BME280;47669;48.712;9.016;2024-01-15T03:43:58;95491.81;;;-2.67;84.03
61769;BME280;47669;48.712;9.016;2024-01-15T03:46:24;95487.97;;;-2.63;83.50
61769;BME280;47669;48.712;9.016;2024-01-15T03:48:49;95483.63;;;-2.62;82.84
61769;BME280;47669;48.712;9.016;2024-01-15T03:51:17;95479.78;;;-2.50;83.74
61769;BME280;47669;48.712;9.016;2024-01-15T03:53:42;95481.22;;;-2.56;83.15
61769;BME280;47669;48.712;9.016;2024-01-15T03:56:07;95488.03;;;-2.47;83.12
61769;BME280;47669;48.712;9.016;2024-01-15T03:58:32;95482.91;;;-2.38;82.67
61769;BME280;47669;48.712;9.016;2024-01-15T04:00:58;95483.06;;;-2.40;82.63
61769;BME280;47669;48.712;9.016;2024-01-15T04:03:23;95493.59;;;-2.33;83.11
61769;BME280;47669;48.712;9.016;2024-01-15T04:05:48;95481.63;;;-2.34;82.68
61769;BME280;47669;48.712;9.016;2024-01-15T04:08:13;95474.34;;;-2.39;82.87
61769;BME280;47669;48.712;9.016;2024-01-15T04:10:39;95483.09;;;-2.32;83.28
61769;BME280;47669;48.712;9.016;2024-01-15T04:13:04;95476.78;;;-2.29;83.10
61769;BME280;47669;48.712;9.016;2024-01-15T04:15:29;95473.53;;;-2.31;83.25
61769;BME280;47669;48.712;9.016;2024-01-15T04:17:54;95473.88;;;-2.34;83.65
61769;BME280;47669;48.712;9.016;2024-01-15T04:20:20;95474.19;;;-2.29;83.38
61769;BME280;47669;48.712;9.016;2024-01-15T04:22:45;95459.81;;;-2.23;82.94
61769;BME280;47669;48.712;9.016;2024-01-15T04:25:10;95464.47;;;-2.35;83.56
61769;BME280;47669;48.712;9.016;2024-01-15T04:27:36;95466.28;;;-2.28;83.79
61769;BME280;47669;48.712;9.016;2024-01-15T04:30:01;95469.00;;;-2.29;83.79
61769;BME280;47669;48.712;9.016;2024-01-15T04:32:26;95464.81;;;-2.30;84.16
61769;BME280;47669;48.712;9.016;2024-01-15T04:34:51;95474.53;;;-2.32;84.39
61769;BME280;47669;48.712;9.016;2024-01-15T04:37:17;95468.06;;;-2.28;84.28
61769;BME280;47669;48.712;9.016;2024-01-15T04:39:42;95469.81;;;-2.29;83.66
61769;BME280;47669;48.712;9.016;2024-01-15T04:42:07;95476.16;;;-2.23;83.38
61769;BME280;47669;48.712;9.016;2024-01-15T04:44:33;95482.97;;;-2.22;83.50
61769;BME280;47669;48.712;9.016;2024-01-15T04:46:58;95471.97;;;-2.24;83.94
61769;BME280;47669;48.712;9.016;2024-01-15T04:49:24;95473.91;;;-2.26;84.19
61769;BME280;47669;48.712;9.016;2024-01-15T04:51:52;95473.25;;;-2.12;84.70
61769;BME280;47669;48.712;9.016;2024-01-15T04:54:17;95473.91;;;-2.26;84.15
61769;BME280;47669;48.712;9.016;2024-01-15T04:56:43;95478.56;;;-2.30;84.83
61769;BME280;47669;48.712;9.016;2024-01-15T04:59:10;95479.38;;;-2.29;84.21
61769;BME280;47669;48.712;9.016;2024-01-15T05:01:35;95471.47;;;-2.28;85.01
61769;BME280;47669;48.712;9.016;2024-01-15T05:04:00;95481.31;;;-2.31;84.88
61769;BME280;47669;48.712;9.016;2024-01-15T05:06:26;95478.09;;;-2.25;84.60
61769;BME280;47669;48.712;9.016;2024-01-15T05:08:51;95483.25;;;-2.25;84.41
61769;BME280;47669;48.712;9.016;2024-01-15T05:11:16;95471.47;;;-2.28;84.07
61769;BME280;47669;48.712;9.016;2024-01-15T05:13:41;95477.59;;;-2.29;85.28
61769;BME280;47669;48.712;9.016;2024-01-15T05:16:07;95472.63;;;-2.22;84.97
61769;BME280;47669;48.712;9.016;2024-01-15T05:18:32;95475.84;;;-2.12;85.39
61769;BME280;47669;48.712;9.016;2024-01-15T05:20:58;95472.44;;;-2.20;84.94
61769;BME280;47669;48.712;9.016;2024-01-15T05:23:23;95471.16;;;-2.16;84.80
61769;BME280;47669;48.712;9.016;2024-01-15T05:25:48;95466.59;;;-2.22;84.87
61769;BME280;47669;48.712;9.016;2024-01-15T05:28:14;95469.41;;;-2.16;84.50
61769;BME280;47669;48.712;9.016;2024-01-15T05:30:39;95462.41;;;-2.23;84.59
61769;BME280;47669;48.712;9.016;2024-01-15T05:33:04;95460.78;;;-2.25;85.60
61769;BME280;47669;48.712;9.016;2024-01-15T05:35:30;95458.19;;;-2.33;85.30
61769;BME280;47669;48.712;9.016;2024-01-15T05:37:55;95444.44;;;-2.25;84.98
61769;BME280;47669;48.712;9.016;2024-01-15T05:40:21;95446.38;;;-2.27;85.13
61769;BME280;47669;48.712;9.016;2024-01-15T05:42:46;95431.00;;;-2.29;85.10
61769;BME280;47669;48.712;9.016;2024-01-15T05:45:11;95430.69;;;-2.26;85.16
61769;BME280;47669;48.712;9.016;2024-01-15T05:47:36;95442.63;;;-2.41;85.60
61769;BME280;47669;48.712;9.016;2024-01-15T05:50:02;95436.34;;;-2.38;85.67
61769;BME280;47669;48.712;9.016;2024-01-15T05:52:27;95443.63;;;-2.34;85.76
61769;BME280;47669;48.712;9.016;2024-01-15T05:54:53;95450.06;;;-2.38;85.72
61769;BME280;47669;48.712;9.016;2024-01-15T05:57:18;95446.56;;;-2.20;85.40
61769;BME280;47669;48.712;9.016;2024-01-15T05:59:44;95449.78;;;-2.27;84.97
61769;BME280;47669;48.712;9.016;2024-01-15T06:02:10;95447.34;;;-2.36;85.61
61769;BME280;47669;48.712;9.016;2024-01-15T06:04:35;95437.50;;;-2.33;85.30
61769;BME280;47669;48.712;9.016;2024-01-15T06:07:01;95437.63;;;-2.34;85.85
61769;BME280;47669;48.712;9.016;2024-01-15T06:09:26;95438.91;;;-2.38;85.76
61769;BME280;47669;48.712;9.016;2024-01-15T06:11:51;95435.19;;;-2.36;85.23
61769;BME280;47669;48.712;9.016;2024-01-15T06:14:17;95434.44;;;-2.28;85.05
61769;BME280;47669;48.712;9.016;2024-01-15T06:16:42;95438.78;;;-2.37;85.48
61769;BME280;47669;48.712;9.016;2024-01-15T06:19:07;95438.28;;;-2.32;85.23
61769;BME280;47669;48.712;9.016;2024-01-15T06:21:33;95441.34;;;-2.29;85.12
61769;BME280;47669;48.712;9.016;2024-01-15T06:23:58;95434.91;;;-2.25;85.16
61769;BME280;47669;48.712;9.016;2024-01-15T06:26:23;95434.06;;;-2.33;84.59
61769;BME280;47669;48.712;9.016;2024-01-15T06:28:48;95419.19;;;-2.31;85.39
61769;BME280;47669;48.712;9.016;2024-01-15T06:31:14;95416.78;;;-2.25;84.74
61769;BME280;47669;48.712;9.016;2024-01-15T06:33:39;95412.09;;;-2.29;86.00
61769;BME280;47669;48.712;9.016;2024-01-15T06:36:05;95408.38;;;-2.18;85.13
61769;BME280;47669;48.712;9.016;2024-01-15T06:38:31;95409.19;;;-2.34;85.47
61769;BME280;47669;48.712;9.016;2024-01-15T06:40:56;95407.25;;;-2.32;85.49
61769;BME280;47669;48.712;9.016;2024-01-15T06:43:22;95404.16;;;-2.28;85.53
61769;BME280;47669;48.712;9.016;2024-01-15T06:45:47;95391.72;;;-2.32;85.78
61769;BME280;47669;48.712;9.016;2024-01-15T06:48:12;95401.91;;;-2.31;85.36
61769;BME280;47669;48.712;9.016;2024-01-15T06:50:40;95393.81;;;-2.36;85.44
61769;BME280;47669;48.712;9.016;2024-01-15T06:53:05;95393.66;;;-2.26;85.23
61769;BME280;47669;48.712;9.016;2024-01-15T06:55:30;95398.19;;;-2.28;85.15
61769;BME280;47669;48.712;9.016;2024-01-15T06:57:55;95400.13;;;-2.30;85.04
61769;BME280;47669;48.712;9.016;2024-01-15T07:00:20;95391.22;;;-2.28;85.00
61769;BME280;47669;48.712;9.016;2024-01-15T07:02:46;95393.19;;;-2.21;84.80
61769;BME280;47669;48.712;9.016;2024-01-15T07:05:11;95399.31;;;-2.22;84.19
61769;BME280;47669;48.712;9.016;2024-01-15T07:07:36;95394.63;;;-2.19;84.03
61769;BME280;47669;48.712;9.016;2024-01-15T07:10:02;95398.34;;;-2.30;84.43
61769;BME280;47669;48.712;9.016;2024-01-15T07:12:29;95404.16;;;-2.28;83.68
61769;BME280;47669;48.712;9.016;2024-01-15T07:14:54;95408.38;;;-2.27;83.60
61769;BME280;47669;48.712;9.016;2024-01-15T07:17:20;95401.44;;;-2.10;83.52
61769;BME280;47669;48.712;9.016;2024-01-15T07:19:45;95412.28;;;-2.14;83.48
61769;BME280;47669;48.712;9.016;2024-01-15T07:22:11;95411.31;;;-2.21;83.20
61769;BME280;47669;48.712;9.016;2024-01-15T07:24:37;95407.72;;;-2.20;83.48
61769;BME280;47669;48.712;9.016;2024-01-15T07:27:02;95413.09;;;-2.22;83.39
61769;BME280;47669;48.712;9.016;2024-01-15T07:29:29;95412.09;;;-2.21;83.62
61769;BME280;47669;48.712;9.016;2024-01-15T07:31:55;95414.84;;;-2.22;83.93
61769;BME280;47669;48.712;9.016;2024-01-15T07:34:20;95402.41;;;-2.11;83.40
61769;BME280;47669;48.712;9.016;2024-01-15T07:36:45;95405.81;;;-2.10;84.05
61769;BME280;47669;48.712;9.016;2024-01-15T07:39:11;95410.81;;;-2.17;83.65
61769;BME280;47669;48.712;9.016;2024-01-15T07:41:36;95419.72;;;-2.19;83.57
61769;BME280;47669;48.712;9.016;2024-01-15T07:44:02;95416.34;;;-2.20;83.49
61769;BME280;47669;48.712;9.016;2024-01-15T07:46:27;95416.16;;;-2.10;83.77
61769;BME280;47669;48.712;9.016;2024-01-15T07:48:52;95423.13;;;-2.11;82.80
61769;BME280;47669;48.712;9.016;2024-01-15T07:51:22;95415.38;;;-2.02;82.10
61769;BME280;47669;48.712;9.016;2024-01-15T07:53:47;95422.78;;;-2.08;82.59
61769;BME280;47669;48.712;9.016;2024-01-15T07:56:13;95424.91;;;-2.11;82.92
61769;BME280;47669;48.712;9.016;2024-01-15T07:58:38;95416.50;;;-2.13;82.73
61769;BME280;47669;48.712;9.016;2024-01-15T08:01:03;95412.28;;;-2.06;82.44
61769;BME280;47669;48.712;9.016;2024-01-15T08:03:29;95415.03;;;-2.08;81.67
61769;BME280;47669;48.712;9.016;2024-01-15T08:05:54;95411.00;;;-2.10;81.79
61769;BME280;47669;48.712;9.016;2024-01-15T08:08:22;95423.44;;;-2.06;81.63
61769;BME280;47669;48.712;9.016;2024-01-15T08:10:48;95417.97;;;-2.02;80.92
61769;BME280;47669;48.712;9.016;2024-01-15T08:13:14;95415.53;;;-1.96;80.49
61769;BME280;47669;48.712;9.016;2024-01-15T08:15:39;95413.09;;;-1.97;80.65
61769;BME280;47669;48.712;9.016;2024-01-15T08:18:04;95413.13;;;-1.89;80.11
61769;BME280;47669;48.712;9.016;2024-01-15T08:20:30;95419.59;;;-1.60;79.54
61769;BME280;47669;48.712;9.016;2024-01-15T08:22:55;95416.66;;;-1.74;78.40
61769;BME280;47669;48.712;9.016;2024-01-15T08:25:21;95413.63;;;-1.69;78.46
61769;BME280;47669;48.712;9.016;2024-01-15T08:27:46;95415.22;;;-1.68;76.79
61769;BME280;47669;48.712;9.016;2024-01-15T08:30:12;95419.25;;;-1.66;76.61
61769;BME280;47669;48.712;9.016;2024-01-15T08:32:37;95416.38;;;-1.54;76.71
61769;BME280;47669;48.712;9.016;2024-01-15T08:35:07;95411.97;;;-1.37;76.17
61769;BME280;47669;48.712;9.016;2024-01-15T08:37:32;95406.31;;;-1.49;75.71
61769;BME280;47669;48.712;9.016;2024-01-15T08:39:57;95405.97;;;-1.46;75.65
61769;BME280;47669;48.712;9.016;2024-01-15T08:42:22;95393.97;;;-1.31;75.19
61769;BME280;47669;48.712;9.016;2024-01-15T08:44:48;95400.78;;;-1.30;74.47
61769;BME280;47669;48.712;9.016;2024-01-15T08:47:13;95399.66;;;-1.35;74.26
61769;BME280;47669;48.712;9.016;2024-01-15T08:49:38;95403.38;;;-1.38;73.93
61769;BME280;47669;48.712;9.016;2024-01-15T08:52:05;95408.88;;;-1.33;74.26
61769;BME280;47669;48.712;9.016;2024-01-15T08:54:30;95410.34;;;-1.30;73.91
61769;BME280;47669;48.712;9.016;2024-01-15T08:56:56;95405.78;;;-1.28;74.30
61769;BME280;47669;48.712;9.016;2024-01-15T08:59:21;95405.31;;;-1.32;73.58
61769;BME280;47669;48.712;9.016;2024-01-15T09:01:50;95407.38;;;-1.19;74.33
61769;BME280;47669;48.712;9.016;2024-01-15T09:04:16;95402.84;;;-1.09;73.80
61769;BME280;47669;48.712;9.016;2024-01-15T09:06:47;95398.97;;;-1.21;73.46
61769;BME280;47669;48.712;9.016;2024-01-15T09:09:12;95388.06;;;-1.08;73.40
61769;BME280;47669;48.712;9.016;2024-01-15T09:11:39;95390.06;;;-1.18;73.27
61769;BME280;47669;48.712;9.016;2024-01-15T09:14:04;95393.13;;;-1.23;73.89
61769;BME280;47669;48.712;9.016;2024-01-15T09:16:29;95384.50;;;-0.99;73.15
61769;BME280;47669;48.712;9.016;2024-01-15T09:18:54;95392.97;;;-1.13;73.15
61769;BME280;47669;48.712;9.016;2024-01-15T09:21:22;95392.47;;;-1.09;73.41
61769;BME280;47669;48.712;9.016;2024-01-15T09:23:48;95398.00;;;-1.20;73.68
61769;BME280;47669;48.712;9.016;2024-01-15T09:26:13;95393.09;;;-0.98;73.46
61769;BME280;47669;48.712;9.016;2024-01-15T09:28:39;95388.38;;;-0.95;74.09
61769;BME280;47669;48.712;9.016;2024-01-15T09:31:04;95379.44;;;-0.92;73.79
61769;BME280;47669;48.712;9.016;2024-01-15T09:33:29;95360.78;;;-0.88;74.18
61769;BME280;47669;48.712;9.016;2024-01-15T09:35:54;95377.38;;;-0.97;73.93
61769;BME280;47669;48.712;9.016;2024-01-15T09:38:20;95368.75;;;-0.97;74.47
61769;BME280;47669;48.712;9.016;2024-01-15T09:40:46;95370.53;;;-0.90;73.75
61769;BME280;47669;48.712;9.016;2024-01-15T09:43:12;95373.63;;;-0.94;73.93
61769;BME280;47669;48.712;9.016;2024-01-15T09:45:39;95374.56;;;-0.87;74.15
61769;BME280;47669;48.712;9.016;2024-01-15T09:48:05;95376.59;;;-0.74;74.35
61769;BME280;47669;48.712;9.016;2024-01-15T09:50:30;95373.44;;;-0.85;73.99
61769;BME280;47669;48.712;9.016;2024-01-15T09:52:56;95378.91;;;-0.79;73.66
61769;BME280;47669;48.712;9.016;2024-01-15T09:55:22;95380.31;;;-0.69;73.73
61769;BME280;47669;48.712;9.016;2024-01-15T09:57:48;95382.53;;;-0.89;73.75
61769;BME280;47669;48.712;9.016;2024-01-15T10:00:17;95369.81;;;-0.75;72.91
61769;BME280;47669;48.712;9.016;2024-01-15T10:02:42;95367.41;;;-0.85;73.39
61769;BME280;47669;48.712;9.016;2024-01-15T10:05:08;95361.91;;;-0.82;73.55
61769;BME280;47669;48.712;9.016;2024-01-15T10:07:35;95362.22;;;-0.85;73.37
61769;BME280;47669;48.712;9.016;2024-01-15T10:10:01;95361.19;;;-0.68;73.36
61769;BME280;47669;48.712;9.016;2024-01-15T10:12:26;95370.28;;;-0.72;72.91
61769;BME280;47669;48.712;9.016;2024-01-15T10:14:52;95368.88;;;-0.83;72.79
61769;BME280;47669;48.712;9.016;2024-01-15T10:17:17;95365.75;;;-0.70;72.56
61769;BME280;47669;48.712;9.016;2024-01-15T10:19:45;95372.63;;;-0.54;72.71
61769;BME280;47669;48.712;9.016;2024-01-15T10:22:10;95368.34;;;-0.70;73.13
61769;BME280;47669;48.712;9.016;2024-01-15T10:24:40;95366.63;;;-0.54;73.28
61769;BME280;47669;48.712;9.016;2024-01-15T10:27:07;95364.75;;;-0.69;72.63
61769;BME280;47669;48.712;9.016;2024-01-15T10:29:32;95353.97;;;-0.57;73.05
61769;BME280;47669;48.712;9.016;2024-01-15T10:31:58;95347.72;;;-0.63;73.29
61769;BME280;47669;48.712;9.016;2024-01-15T10:34:24;95349.66;;;-0.65;73.09
61769;BME280;47669;48.712;9.016;2024-01-15T10:36:50;95342.84;;;-0.66;73.14
61769;BME280;47669;48.712;9.016;2024-01-15T10:39:23;95336.84;;;-0.67;73.28
61769;BME280;47669;48.712;9.016;2024-01-15T10:41:49;95339.41;;;-0.58;73.19
61769;BME280;47669;48.712;9.016;2024-01-15T10:44:16;95330.25;;;-0.46;73.51
61769;BME280;47669;48.712;9.016;2024-01-15T10:46:42;95330.19;;;-0.61;73.64
61769;BME280;47669;48.712;9.016;2024-01-15T10:49:08;95324.31;;;-0.55;72.85
61769;BME280;47669;48.712;9.016;2024-01-15T10:51:34;95319.28;;;-0.56;72.96
61769;BME280;47669;48.712;9.016;2024-01-15T10:53:59;95316.00;;;-0.50;73.74
61769;BME280;47669;48.712;9.016;2024-01-15T10:56:27;95317.16;;;-0.53;73.57
61769;BME280;47669;48.712;9.016;2024-01-15T10:58:54;95318.94;;;-0.53;74.19
61769;BME280;47669;48.712;9.016;2024-01-15T11:01:20;95323.88;;;-0.67;74.91
61769;BME280;47669;48.712;9.016;2024-01-15T11:03:46;95317.78;;;-0.74;77.05
61769;BME280;47669;48.712;9.016;2024-01-15T11:06:19;95309.00;;;-0.73;76.99
61769;BME280;47669;48.712;9.016;2024-01-15T11:08:52;95312.97;;;-0.93;79.18
61769;BME280;47669;48.712;9.016;2024-01-15T11:11:17;95308.06;;;-0.80;79.62
61769;BME280;47669;48.712;9.016;2024-01-15T11:13:43;95310.88;;;-0.90;79.70
61769;BME280;47669;48.712;9.016;2024-01-15T11:16:14;95293.59;;;-0.74;80.86
61769;BME280;47669;48.712;9.016;2024-01-15T11:18:43;95296.94;;;-0.89;79.85
61769;BME280;47669;48.712;9.016;2024-01-15T11:23:46;95293.16;;;-0.78;80.22
61769;BME280;47669;48.712;9.016;2024-01-15T11:28:56;95302.59;;;-0.62;80.08
61769;BME280;47669;48.712;9.016;2024-01-15T11:34:06;95297.22;;;-0.84;80.31
61769;BME280;47669;48.712;9.016;2024-01-15T11:42:03;95298.66;;;-0.81;80.66
61769;BME280;47669;48.712;9.016;2024-01-15T11:44:29;95293.34;;;-0.88;81.17
61769;BME280;47669;48.712;9.016;2024-01-15T11:47:02;95293.78;;;-0.76;81.98
61769;BME280;47669;48.712;9.016;2024-01-15T11:50:00;95300.97;;;-0.86;81.48
61769;BME280;47669;48.712;9.016;2024-01-15T11:52:27;95299.38;;;-0.64;81.54
61769;BME280;47669;48.712;9.016;2024-01-15T11:55:13;95307.03;;;-0.71;81.06
61769;BME280;47669;48.712;9.016;2024-01-15T11:57:50;95306.78;;;-0.84;81.82
61769;BME280;47669;48.712;9.016;2024-01-15T12:00:16;95314.78;;;-0.94;83.02
61769;BME280;47669;48.712;9.016;2024-01-15T12:02:45;95316.63;;;-0.71;84.10
61769;BME280;47669;48.712;9.016;2024-01-15T12:05:13;95315.56;;;-0.93;87.40
61769;BME280;47669;48.712;9.016;2024-01-15T12:07:39;95308.97;;;-1.04;88.98
61769;BME280;47669;48.712;9.016;2024-01-15T12:10:19;95312.31;;;-1.18;90.77
61769;BME280;47669;48.712;9.016;2024-01-15T12:15:31;95320.66;;;-1.48;92.48
61769;BME280;47669;48.712;9.016;2024-01-15T12:18:00;95320.00;;;-1.58;93.92
61769;BME280;47669;48.712;9.016;2024-01-15T12:20:30;95318.88;;;-1.55;94.74
61769;BME280;47669;48.712;9.016;2024-01-15T12:22:57;95315.28;;;-1.46;94.48
61769;BME280;47669;48.712;9.016;2024-01-15T12:25:23;95317.75;;;-1.61;95.11
61769;BME280;47669;48.712;9.016;2024-01-15T12:27:49;95305.28;;;-1.57;95.18
61769;BME280;47669;48.712;9.016;2024-01-15T12:30:15;95309.25;;;-1.30;94.43
61769;BME280;47669;48.712;9.016;2024-01-15T12:32:43;95309.91;;;-1.28;94.09
61769;BME280;47669;48.712;9.016;2024-01-15T12:35:10;95319.13;;;-1.34;93.88
61769;BME280;47669;48.712;9.016;2024-01-15T12:37:42;95316.75;;;-1.44;94.27
61769;BME280;47669;48.712;9.016;2024-01-15T12:40:08;95319.63;;;-1.38;95.12
61769;BME280;47669;48.712;9.016;2024-01-15T12:42:43;95322.22;;;-1.38;96.43
61769;BME280;47669;48.712;9.016;2024-01-15T12:45:09;95328.59;;;-1.57;96.85
61769;BME280;47669;48.712;9.016;2024-01-15T12:47:36;95326.47;;;-1.46;97.73
61769;BME280;47669;48.712;9.016;2024-01-15T12:50:02;95327.28;;;-1.45;97.50
61769;BME280;47669;48.712;9.016;2024-01-15T12:52:28;95320.66;;;-1.56;98.04
61769;BME280;47669;48.712;9.016;2024-01-15T12:54:54;95324.22;;;-1.57;97.77
61769;BME280;47669;48.712;9.016;2024-01-15T12:57:19;95329.72;;;-1.44;98.03
61769;BME280;47669;48.712;9.016;2024-01-15T12:59:45;95333.41;;;-1.38;98.04
61769;BME280;47669;48.712;9.016;2024-01-15T13:02:11;95320.66;;;-1.48;98.43
61769;BME280;47669;48.712;9.016;2024-01-15T13:04:37;95309.34;;;-1.15;97.81
61769;BME280;47669;48.712;9.016;2024-01-15T13:07:02;95317.81;;;-1.30;98.01
61769;BME280;47669;48.712;9.016;2024-01-15T13:09:27;95325.19;;;-1.50;98.65